ZPTAI SAZO-SAZV
Flight info
| Callsign | ZPTAI |
|---|---|
| Flight time | N/A |
| Altitude | FL055 |
| Route | 3833S05844W 3816S05751W 3760S05734W 3750S05730W 3744S05727W |
| Aircraft | C152/L-S/N |
Departure
| Time | N/A |
|---|---|
| Airport | Necochea Airport (SAZO) |
Arrival
| Time | 2026-04-12 15:02 |
|---|---|
| Airport | Villa Gesell Airport (SAZV) |
| Time | Latitude | Longitude | Altitude | Speed | Heading |
|---|---|---|---|---|---|
| 2026-04-12 14:45 | -37.48881 | -57.23612 | 5469 ft | 90 kts | 32° |
| 2026-04-12 14:46 | -37.48364 | -57.23178 | 5469 ft | 90 kts | 32° |
| 2026-04-12 14:46 | -37.47844 | -57.22741 | 5468 ft | 90 kts | 32° |
| 2026-04-12 14:46 | -37.47387 | -57.22357 | 5467 ft | 90 kts | 32° |
| 2026-04-12 14:46 | -37.46943 | -57.21978 | 5463 ft | 90 kts | 34° |
| 2026-04-12 14:47 | -37.46419 | -57.21500 | 5391 ft | 97 kts | 34° |
| 2026-04-12 14:47 | -37.45856 | -57.20986 | 5263 ft | 103 kts | 35° |
| 2026-04-12 14:47 | -37.45266 | -57.20449 | 5118 ft | 107 kts | 35° |
| 2026-04-12 14:47 | -37.44655 | -57.19895 | 4961 ft | 110 kts | 35° |
| 2026-04-12 14:48 | -37.44034 | -57.19332 | 4806 ft | 110 kts | 35° |
| 2026-04-12 14:48 | -37.43439 | -57.18788 | 4627 ft | 97 kts | 34° |
| 2026-04-12 14:48 | -37.42903 | -57.18307 | 4402 ft | 94 kts | 34° |
| 2026-04-12 14:48 | -37.42380 | -57.17832 | 4246 ft | 92 kts | 34° |
| 2026-04-12 14:49 | -37.41861 | -57.17366 | 4089 ft | 92 kts | 33° |
| 2026-04-12 14:49 | -37.41344 | -57.16903 | 3940 ft | 92 kts | 33° |
| 2026-04-12 14:49 | -37.40828 | -57.16437 | 3793 ft | 92 kts | 33° |
| 2026-04-12 14:49 | -37.40314 | -57.15969 | 3643 ft | 91 kts | 32° |
| 2026-04-12 14:50 | -37.39795 | -57.15507 | 3495 ft | 92 kts | 32° |
| 2026-04-12 14:50 | -37.39279 | -57.15043 | 3353 ft | 91 kts | 32° |
| 2026-04-12 14:50 | -37.38769 | -57.14579 | 3223 ft | 90 kts | 32° |
| 2026-04-12 14:50 | -37.38260 | -57.14121 | 3093 ft | 90 kts | 31° |
| 2026-04-12 14:51 | -37.37753 | -57.13667 | 2966 ft | 90 kts | 31° |
| 2026-04-12 14:51 | -37.37250 | -57.13213 | 2841 ft | 89 kts | 31° |
| 2026-04-12 14:51 | -37.36746 | -57.12753 | 2718 ft | 90 kts | 31° |
| 2026-04-12 14:51 | -37.36241 | -57.12301 | 2595 ft | 90 kts | 30° |
| 2026-04-12 14:52 | -37.35734 | -57.11849 | 2471 ft | 90 kts | 30° |
| 2026-04-12 14:52 | -37.35226 | -57.11396 | 2345 ft | 90 kts | 30° |
| 2026-04-12 14:52 | -37.34719 | -57.10943 | 2220 ft | 90 kts | 30° |
| 2026-04-12 14:52 | -37.34212 | -57.10490 | 2097 ft | 90 kts | 30° |
| 2026-04-12 14:53 | -37.33702 | -57.10036 | 1973 ft | 90 kts | 30° |
| 2026-04-12 14:53 | -37.33192 | -57.09581 | 1850 ft | 90 kts | 30° |
| 2026-04-12 14:53 | -37.32679 | -57.09122 | 1736 ft | 90 kts | 30° |
| 2026-04-12 14:53 | -37.32186 | -57.08679 | 1700 ft | 84 kts | 30° |
| 2026-04-12 14:54 | -37.31731 | -57.08262 | 1696 ft | 79 kts | 29° |
| 2026-04-12 14:54 | -37.31302 | -57.07871 | 1711 ft | 75 kts | 28° |
| 2026-04-12 14:54 | -37.30890 | -57.07496 | 1726 ft | 72 kts | 28° |
| 2026-04-12 14:54 | -37.30486 | -57.07125 | 1739 ft | 72 kts | 28° |
| 2026-04-12 14:55 | -37.30087 | -57.06757 | 1747 ft | 72 kts | 28° |
| 2026-04-12 14:55 | -37.29684 | -57.06387 | 1751 ft | 72 kts | 28° |
| 2026-04-12 14:55 | -37.29279 | -57.06015 | 1750 ft | 72 kts | 28° |
| 2026-04-12 14:55 | -37.28873 | -57.05642 | 1748 ft | 73 kts | 28° |
| 2026-04-12 14:56 | -37.28464 | -57.05269 | 1747 ft | 73 kts | 28° |
| 2026-04-12 14:56 | -37.28053 | -57.04893 | 1746 ft | 73 kts | 28° |
| 2026-04-12 14:56 | -37.27642 | -57.04518 | 1745 ft | 73 kts | 28° |
| 2026-04-12 14:56 | -37.27230 | -57.04150 | 1745 ft | 73 kts | 27° |
| 2026-04-12 14:57 | -37.26817 | -57.03781 | 1745 ft | 73 kts | 27° |
| 2026-04-12 14:57 | -37.26392 | -57.03441 | 1727 ft | 73 kts | 15° |
| 2026-04-12 14:57 | -37.25892 | -57.03192 | 1638 ft | 81 kts | 14° |
| 2026-04-12 14:57 | -37.25451 | -57.02749 | 1562 ft | 89 kts | 69° |
| 2026-04-12 14:58 | -37.25534 | -57.02019 | 1600 ft | 81 kts | 99° |
| 2026-04-12 14:58 | -37.25616 | -57.01295 | 1542 ft | 88 kts | 97° |
| 2026-04-12 14:58 | -37.25719 | -57.00510 | 1441 ft | 94 kts | 99° |
| 2026-04-12 14:58 | -37.25842 | -56.99689 | 1328 ft | 97 kts | 102° |
| 2026-04-12 14:59 | -37.25985 | -56.98850 | 1201 ft | 99 kts | 104° |
| 2026-04-12 14:59 | -37.25939 | -56.98007 | 1050 ft | 101 kts | 54° |
| 2026-04-12 14:59 | -37.25363 | -56.97646 | 970 ft | 90 kts | 8° |
| 2026-04-12 14:59 | -37.24755 | -56.97571 | 849 ft | 87 kts | 335° |
| 2026-04-12 15:00 | -37.24299 | -56.98666 | 687 ft | 65 kts | 287° |
| 2026-04-12 15:00 | -37.24144 | -56.99161 | 626 ft | 59 kts | 287° |
| 2026-04-12 15:00 | -37.24010 | -56.99628 | 545 ft | 53 kts | 283° |
| 2026-04-12 15:01 | -37.23890 | -57.00071 | 427 ft | 54 kts | 284° |
| 2026-04-12 15:01 | -37.23769 | -57.00539 | 273 ft | 59 kts | 287° |
| 2026-04-12 15:01 | -37.23655 | -57.01027 | 148 ft | 61 kts | 279° |
| 2026-04-12 15:01 | -37.23572 | -57.01540 | 42 ft | 58 kts | 278° |
| 2026-04-12 15:02 | -37.23528 | -57.01835 | 37 ft | 11 kts | 281° |
| 2026-04-12 15:02 | -37.23530 | -57.01784 | 37 ft | 17 kts | 102° |
| 2026-04-12 15:02 | -37.23558 | -57.01604 | 37 ft | 21 kts | 95° |
| 2026-04-12 15:02 | -37.23543 | -57.01496 | 37 ft | 9 kts | 14° |
| 2026-04-12 15:03 | -37.23487 | -57.01485 | 37 ft | 7 kts | 2° |
| 2026-04-12 15:03 | -37.23454 | -57.01478 | 37 ft | 2 kts | 13° |
| 2026-04-12 15:03 | -37.23384 | -57.01476 | 37 ft | 10 kts | 299° |
| 2026-04-12 15:03 | -37.23373 | -57.01499 | 37 ft | 0 kts | 308° |